Senador Firmino, Brazil
Current Conditions -  °F | °C
As of 4:00 PM on Thursday 23 Oct 2014 (Local Time) from SBBH Reporting Station
Few Clouds Few Clouds  
Wind Chill: 81°   Ceiling: Unl
Heat Index: 81°   Visibility: 6mi
Dew Point: 57°   Wind: 6mph
Humidity: 45%   Direction: 120°ESE
Pressure: 30.09"   Gusts: NA
Location:  20.91°S, 43.1°W
Report Text: SBBH 231800Z 12005KT 9999 FEW040 27/14 Q1019
Loading
Personal Weather Stations






























Interactive Weather Map
Tropical Storm Tracking
New forecast layout! Learn more

10-Day Weather Forecast

Advertisements
Track Severe Weather on mobile